Rush — ZGAV9 — position and weather

sailwx.info

Track history (hours):
 
Tides and Currents Weather Stations Pressure Air Temp Water Temp Dewpoint Dewpoint Depression Visibility Wind Speed Wind Dir Waves Ship Positions

Rush

Last reported at 2015-May-24 14:32 UTC. Time now 2015-May-24 15:17 UTC.
Position N 43°34' E 007°05'.

Length 49 m; draft 1.8 m.

Type: High speed craft. MMSI: 319035300.

Date/timePositionNaut miles runAvg speedWind from/ knotsBaromVisibWave heightAir tempDewpointWater temp
2015-May-24 14:32N 43°34' E 007°05'0 0.0
2015-May-24 13:32N 43°34' E 007°05'0 0.0
2015-May-24 12:32N 43°34' E 007°05'0 0.0
2015-May-24 11:26N 43°34' E 007°05'0 0.0
2015-May-24 10:32N 43°34' E 007°05'0 0.0
2015-May-24 09:32N 43°34' E 007°05'0 0.0
2015-May-24 08:32N 43°34' E 007°05'0 0.0
2015-May-24 07:32N 43°34' E 007°05'0 0.0
2015-May-24 06:32N 43°34' E 007°05'0 0.0
2015-May-24 05:32N 43°34' E 007°05'0 0.0
2015-May-24 04:32N 43°34' E 007°05'0 0.0
2015-May-24 03:32N 43°34' E 007°05'0 0.0
2015-May-24 02:32N 43°34' E 007°05'0 0.0
2015-May-24 01:32N 43°34' E 007°05'0 0.0
2015-May-24 00:32N 43°34' E 007°05'0 0.0
2015-May-23 23:32N 43°34' E 007°05'0 0.0
2015-May-23 22:32N 43°34' E 007°05'5 5.3
2015-May-23 21:33N 43°34' E 007°12'1110.1
2015-May-23 20:29N 43°43' E 007°21'0 0.0
2015-May-23 19:29N 43°43' E 007°21'0 0.0
2015-May-23 18:29N 43°43' E 007°21'0 0.0
2015-May-23 17:29N 43°43' E 007°21'0 0.0
2015-May-23 16:23N 43°43' E 007°21'0 0.0
2015-May-23 15:05N 43°43' E 007°21'0 0.0
2015-May-23 13:17N 43°43' E 007°21'0 0.0
2015-May-23 11:11N 43°43' E 007°21'0 0.0
2015-May-23 10:23N 43°43' E 007°21'6 7.8
2015-May-23 09:34N 43°36' E 007°18'10 9.6
2015-May-23 08:30N 43°34' E 007°05'0 0.0
2015-May-23 07:18N 43°34' E 007°05'0 0.0
2015-May-23 06:23N 43°34' E 007°05'0 0.0
2015-May-23 05:23N 43°34' E 007°05'0 0.0
2015-May-23 04:30N 43°34' E 007°05'0 0.0
2015-May-23 03:29N 43°34' E 007°05'0 0.0
2015-May-23 02:30N 43°34' E 007°05'0 0.0
2015-May-23 01:29N 43°34' E 007°05'0 0.0
2015-May-23 00:29N 43°34' E 007°05'0 0.0
2015-May-22 23:29N 43°34' E 007°05'0 0.0
2015-May-22 22:30N 43°34' E 007°05'0 0.0
2015-May-22 21:29N 43°34' E 007°05'0 0.0
2015-May-22 20:23N 43°34' E 007°05'0 0.0
2015-May-22 19:29N 43°34' E 007°05'0 0.0
2015-May-22 18:29N 43°34' E 007°05'0 0.0
2015-May-22 17:29N 43°34' E 007°05'0 0.0
2015-May-22 16:29N 43°34' E 007°05'0 0.0
2015-May-22 15:11N 43°34' E 007°05'0 0.0
2015-May-22 14:29N 43°34' E 007°05'0 0.0
2015-May-22 12:29N 43°34' E 007°05'0 0.0
2015-May-22 11:29N 43°34' E 007°05'0 0.0
2015-May-22 10:29N 43°34' E 007°05'0 0.0
2015-May-22 08:29N 43°34' E 007°05'0 0.0
2015-May-22 07:29N 43°34' E 007°05'0 0.0
2015-May-22 06:29N 43°34' E 007°05'0 0.0
2015-May-22 05:29N 43°34' E 007°05'0 0.0
2015-May-22 04:23N 43°34' E 007°05'0 0.0
2015-May-22 03:29N 43°34' E 007°05'0 0.0
2015-May-22 02:29N 43°34' E 007°05'0 0.0
2015-May-22 01:29N 43°34' E 007°05'0 0.0
2015-May-22 00:29N 43°34' E 007°05'0 0.0
2015-May-21 23:29N 43°34' E 007°05'0 0.0
2015-May-21 22:29N 43°34' E 007°05'0 0.0
2015-May-21 21:29N 43°34' E 007°05'0 0.0
2015-May-21 20:29N 43°34' E 007°05'0 0.0
2015-May-21 19:05N 43°34' E 007°05'0 0.0
2015-May-21 18:29N 43°34' E 007°05'0 0.0
2015-May-21 17:05N 43°34' E 007°05'0 0.0
2015-May-21 16:29N 43°34' E 007°05'0 0.0
2015-May-21 15:29N 43°34' E 007°05'0 0.0
2015-May-21 14:29N 43°34' E 007°05'0 0.0
2015-May-21 13:33N 43°34' E 007°05'0 0.4
2015-May-21 12:33N 43°34' E 007°05'8 8.0
2015-May-21 11:33N 43°36' E 007°15'  
2015-May-18 23:33N 43°44' E 007°26'0 0.0
2015-May-18 20:32N 43°44' E 007°26'0 0.0
2015-May-18 19:10N 43°44' E 007°26'0 0.0
2015-May-18 18:33N 43°44' E 007°26'0 0.0
2015-May-18 17:22N 43°44' E 007°26'0 0.0
2015-May-18 16:27N 43°44' E 007°26'1 0.2
2015-May-18 11:29N 43°44' E 007°27'2 0.2
2015-May-18 01:28N 43°44' E 007°25'  
Track history (hours):
 
Tides and Currents Weather Stations Pressure Air Temp Water Temp Dewpoint Dewpoint Depression Visibility Wind Speed Wind Dir Waves Ship Positions

Rush

Last reported at 2015-May-24 14:32 UTC. Time now 2015-May-24 15:17 UTC.
Position N 43°34' E 007°05'.

Length 49 m; draft 1.8 m.

Type: High speed craft. MMSI: 319035300.

Date/timePositionNaut miles runAvg speedWind from/ knotsBaromVisibWave heightAir tempDewpointWater temp
2015-May-24 14:32N 43°34' E 007°05'0 0.0
2015-May-24 13:32N 43°34' E 007°05'0 0.0
2015-May-24 12:32N 43°34' E 007°05'0 0.0
2015-May-24 11:26N 43°34' E 007°05'0 0.0
2015-May-24 10:32N 43°34' E 007°05'0 0.0
2015-May-24 09:32N 43°34' E 007°05'0 0.0
2015-May-24 08:32N 43°34' E 007°05'0 0.0
2015-May-24 07:32N 43°34' E 007°05'0 0.0
2015-May-24 06:32N 43°34' E 007°05'0 0.0
2015-May-24 05:32N 43°34' E 007°05'0 0.0
2015-May-24 04:32N 43°34' E 007°05'0 0.0
2015-May-24 03:32N 43°34' E 007°05'0 0.0
2015-May-24 02:32N 43°34' E 007°05'0 0.0
2015-May-24 01:32N 43°34' E 007°05'0 0.0
2015-May-24 00:32N 43°34' E 007°05'0 0.0
2015-May-23 23:32N 43°34' E 007°05'0 0.0
2015-May-23 22:32N 43°34' E 007°05'5 5.3
2015-May-23 21:33N 43°34' E 007°12'1110.1
2015-May-23 20:29N 43°43' E 007°21'0 0.0
2015-May-23 19:29N 43°43' E 007°21'0 0.0
2015-May-23 18:29N 43°43' E 007°21'0 0.0
2015-May-23 17:29N 43°43' E 007°21'0 0.0
2015-May-23 16:23N 43°43' E 007°21'0 0.0
2015-May-23 15:05N 43°43' E 007°21'0 0.0
2015-May-23 13:17N 43°43' E 007°21'0 0.0
2015-May-23 11:11N 43°43' E 007°21'0 0.0
2015-May-23 10:23N 43°43' E 007°21'6 7.8
2015-May-23 09:34N 43°36' E 007°18'10 9.6
2015-May-23 08:30N 43°34' E 007°05'0 0.0
2015-May-23 07:18N 43°34' E 007°05'0 0.0
2015-May-23 06:23N 43°34' E 007°05'0 0.0
2015-May-23 05:23N 43°34' E 007°05'0 0.0
2015-May-23 04:30N 43°34' E 007°05'0 0.0
2015-May-23 03:29N 43°34' E 007°05'0 0.0
2015-May-23 02:30N 43°34' E 007°05'0 0.0
2015-May-23 01:29N 43°34' E 007°05'0 0.0
2015-May-23 00:29N 43°34' E 007°05'0 0.0
2015-May-22 23:29N 43°34' E 007°05'0 0.0
2015-May-22 22:30N 43°34' E 007°05'0 0.0
2015-May-22 21:29N 43°34' E 007°05'0 0.0
2015-May-22 20:23N 43°34' E 007°05'0 0.0
2015-May-22 19:29N 43°34' E 007°05'0 0.0
2015-May-22 18:29N 43°34' E 007°05'0 0.0
2015-May-22 17:29N 43°34' E 007°05'0 0.0
2015-May-22 16:29N 43°34' E 007°05'0 0.0
2015-May-22 15:11N 43°34' E 007°05'0 0.0
2015-May-22 14:29N 43°34' E 007°05'0 0.0
2015-May-22 12:29N 43°34' E 007°05'0 0.0
2015-May-22 11:29N 43°34' E 007°05'0 0.0
2015-May-22 10:29N 43°34' E 007°05'0 0.0
2015-May-22 08:29N 43°34' E 007°05'0 0.0
2015-May-22 07:29N 43°34' E 007°05'0 0.0
2015-May-22 06:29N 43°34' E 007°05'0 0.0
2015-May-22 05:29N 43°34' E 007°05'0 0.0
2015-May-22 04:23N 43°34' E 007°05'0 0.0
2015-May-22 03:29N 43°34' E 007°05'0 0.0
2015-May-22 02:29N 43°34' E 007°05'0 0.0
2015-May-22 01:29N 43°34' E 007°05'0 0.0
2015-May-22 00:29N 43°34' E 007°05'0 0.0
2015-May-21 23:29N 43°34' E 007°05'0 0.0
2015-May-21 22:29N 43°34' E 007°05'0 0.0
2015-May-21 21:29N 43°34' E 007°05'0 0.0
2015-May-21 20:29N 43°34' E 007°05'0 0.0
2015-May-21 19:05N 43°34' E 007°05'0 0.0
2015-May-21 18:29N 43°34' E 007°05'0 0.0
2015-May-21 17:05N 43°34' E 007°05'0 0.0
2015-May-21 16:29N 43°34' E 007°05'0 0.0
2015-May-21 15:29N 43°34' E 007°05'0 0.0
2015-May-21 14:29N 43°34' E 007°05'0 0.0
2015-May-21 13:33N 43°34' E 007°05'0 0.4
2015-May-21 12:33N 43°34' E 007°05'8 8.0
2015-May-21 11:33N 43°36' E 007°15'  
2015-May-18 23:33N 43°44' E 007°26'0 0.0
2015-May-18 20:32N 43°44' E 007°26'0 0.0
2015-May-18 19:10N 43°44' E 007°26'0 0.0
2015-May-18 18:33N 43°44' E 007°26'0 0.0
2015-May-18 17:22N 43°44' E 007°26'0 0.0
2015-May-18 16:27N 43°44' E 007°26'1 0.2
2015-May-18 11:29N 43°44' E 007°27'2 0.2
2015-May-18 01:28N 43°44' E 007°25'  

Dump ship's entire track history